sensor_id;sensor_type;location;lat;lon;timestamp;P1;durP1;ratioP1;P2;durP2;ratioP2
73678;SDS011;61978;52.742;16.962;2022-12-07T00:01:42;36.35;;;15.72;;
73678;SDS011;61978;52.742;16.962;2022-12-07T00:04:14;42.00;;;16.05;;
73678;SDS011;61978;52.742;16.962;2022-12-07T00:06:45;35.17;;;14.87;;
73678;SDS011;61978;52.742;16.962;2022-12-07T00:09:17;39.42;;;15.98;;
73678;SDS011;61978;52.742;16.962;2022-12-07T00:11:47;44.73;;;17.25;;
73678;SDS011;61978;52.742;16.962;2022-12-07T00:14:15;46.80;;;16.95;;
73678;SDS011;61978;52.742;16.962;2022-12-07T00:16:48;47.95;;;16.90;;
73678;SDS011;61978;52.742;16.962;2022-12-07T00:19:18;38.20;;;15.88;;
73678;SDS011;61978;52.742;16.962;2022-12-07T00:21:48;42.27;;;16.35;;
73678;SDS011;61978;52.742;16.962;2022-12-07T00:24:16;44.58;;;17.87;;
73678;SDS011;61978;52.742;16.962;2022-12-07T00:26:43;46.45;;;19.10;;
73678;SDS011;61978;52.742;16.962;2022-12-07T00:29:17;48.28;;;19.40;;
73678;SDS011;61978;52.742;16.962;2022-12-07T00:31:47;54.98;;;20.48;;
73678;SDS011;61978;52.742;16.962;2022-12-07T00:34:15;53.85;;;21.02;;
73678;SDS011;61978;52.742;16.962;2022-12-07T00:36:45;53.15;;;20.97;;
73678;SDS011;61978;52.742;16.962;2022-12-07T00:39:13;61.20;;;23.45;;
73678;SDS011;61978;52.742;16.962;2022-12-07T00:41:45;51.37;;;21.33;;
73678;SDS011;61978;52.742;16.962;2022-12-07T00:44:18;56.60;;;21.80;;
73678;SDS011;61978;52.742;16.962;2022-12-07T00:46:47;53.63;;;23.07;;
73678;SDS011;61978;52.742;16.962;2022-12-07T00:49:18;53.28;;;21.52;;
73678;SDS011;61978;52.742;16.962;2022-12-07T00:51:50;56.45;;;23.73;;
73678;SDS011;61978;52.742;16.962;2022-12-07T00:54:17;56.45;;;24.43;;
73678;SDS011;61978;52.742;16.962;2022-12-07T00:56:48;59.55;;;24.57;;
73678;SDS011;61978;52.742;16.962;2022-12-07T00:59:17;52.85;;;25.43;;
73678;SDS011;61978;52.742;16.962;2022-12-07T01:01:44;48.87;;;23.20;;
73678;SDS011;61978;52.742;16.962;2022-12-07T01:04:10;50.30;;;22.48;;
73678;SDS011;61978;52.742;16.962;2022-12-07T01:06:38;51.10;;;24.45;;
73678;SDS011;61978;52.742;16.962;2022-12-07T01:09:06;45.05;;;22.65;;
73678;SDS011;61978;52.742;16.962;2022-12-07T01:11:36;44.42;;;23.83;;
73678;SDS011;61978;52.742;16.962;2022-12-07T01:14:02;44.95;;;21.93;;
73678;SDS011;61978;52.742;16.962;2022-12-07T01:16:30;42.00;;;22.70;;
73678;SDS011;61978;52.742;16.962;2022-12-07T01:19:02;38.80;;;22.37;;
73678;SDS011;61978;52.742;16.962;2022-12-07T01:21:31;40.40;;;22.50;;
73678;SDS011;61978;52.742;16.962;2022-12-07T01:24:06;30.60;;;19.77;;
73678;SDS011;61978;52.742;16.962;2022-12-07T01:26:33;32.33;;;20.00;;
73678;SDS011;61978;52.742;16.962;2022-12-07T01:29:01;27.90;;;19.60;;
73678;SDS011;61978;52.742;16.962;2022-12-07T01:31:29;28.55;;;18.02;;
73678;SDS011;61978;52.742;16.962;2022-12-07T01:33:56;24.92;;;17.52;;
73678;SDS011;61978;52.742;16.962;2022-12-07T01:36:30;24.80;;;16.80;;
73678;SDS011;61978;52.742;16.962;2022-12-07T01:39:08;27.00;;;17.75;;
73678;SDS011;61978;52.742;16.962;2022-12-07T01:41:40;27.55;;;16.93;;
73678;SDS011;61978;52.742;16.962;2022-12-07T01:47:00;24.43;;;16.57;;
73678;SDS011;61978;52.742;16.962;2022-12-07T01:52:10;21.50;;;13.80;;
73678;SDS011;61978;52.742;16.962;2022-12-07T01:54:43;23.80;;;15.68;;
73678;SDS011;61978;52.742;16.962;2022-12-07T01:57:15;23.57;;;15.47;;
73678;SDS011;61978;52.742;16.962;2022-12-07T01:59:44;24.98;;;15.58;;
73678;SDS011;61978;52.742;16.962;2022-12-07T02:02:16;27.75;;;17.05;;
73678;SDS011;61978;52.742;16.962;2022-12-07T02:04:45;26.20;;;15.58;;
73678;SDS011;61978;52.742;16.962;2022-12-07T02:07:12;26.25;;;14.90;;
73678;SDS011;61978;52.742;16.962;2022-12-07T02:09:45;28.87;;;15.78;;
73678;SDS011;61978;52.742;16.962;2022-12-07T02:12:16;24.65;;;15.15;;
73678;SDS011;61978;52.742;16.962;2022-12-07T02:14:43;25.75;;;16.07;;
73678;SDS011;61978;52.742;16.962;2022-12-07T02:17:27;25.88;;;15.80;;
73678;SDS011;61978;52.742;16.962;2022-12-07T02:20:05;21.73;;;13.90;;
73678;SDS011;61978;52.742;16.962;2022-12-07T02:23:00;24.63;;;16.00;;
73678;SDS011;61978;52.742;16.962;2022-12-07T02:30:55;18.70;;;13.93;;
73678;SDS011;61978;52.742;16.962;2022-12-07T02:33:31;22.17;;;14.33;;
73678;SDS011;61978;52.742;16.962;2022-12-07T02:36:04;24.40;;;15.58;;
73678;SDS011;61978;52.742;16.962;2022-12-07T02:38:39;23.55;;;13.93;;
73678;SDS011;61978;52.742;16.962;2022-12-07T02:46:13;20.57;;;13.85;;
73678;SDS011;61978;52.742;16.962;2022-12-07T02:48:44;20.23;;;13.62;;
73678;SDS011;61978;52.742;16.962;2022-12-07T02:51:14;21.35;;;14.65;;
73678;SDS011;61978;52.742;16.962;2022-12-07T02:53:44;17.98;;;13.93;;
73678;SDS011;61978;52.742;16.962;2022-12-07T03:10:25;15.53;;;10.10;;
73678;SDS011;61978;52.742;16.962;2022-12-07T03:13:14;14.10;;;11.03;;
73678;SDS011;61978;52.742;16.962;2022-12-07T03:15:57;13.65;;;10.20;;
73678;SDS011;61978;52.742;16.962;2022-12-07T03:18:34;12.63;;;10.68;;
73678;SDS011;61978;52.742;16.962;2022-12-07T03:21:08;13.48;;;10.50;;
73678;SDS011;61978;52.742;16.962;2022-12-07T03:23:37;14.80;;;10.40;;
73678;SDS011;61978;52.742;16.962;2022-12-07T03:26:12;10.57;;;8.93;;
73678;SDS011;61978;52.742;16.962;2022-12-07T03:28:45;14.07;;;9.78;;
73678;SDS011;61978;52.742;16.962;2022-12-07T03:31:21;10.08;;;8.00;;
73678;SDS011;61978;52.742;16.962;2022-12-07T03:36:40;9.33;;;8.38;;
73678;SDS011;61978;52.742;16.962;2022-12-07T03:39:12;11.70;;;9.80;;
73678;SDS011;61978;52.742;16.962;2022-12-07T03:41:53;10.03;;;8.60;;
73678;SDS011;61978;52.742;16.962;2022-12-07T03:44:25;12.73;;;9.88;;
73678;SDS011;61978;52.742;16.962;2022-12-07T03:52:37;10.40;;;8.88;;
73678;SDS011;61978;52.742;16.962;2022-12-07T03:55:08;11.63;;;9.38;;
73678;SDS011;61978;52.742;16.962;2022-12-07T04:00:09;10.88;;;9.13;;
73678;SDS011;61978;52.742;16.962;2022-12-07T04:02:43;11.38;;;9.00;;
73678;SDS011;61978;52.742;16.962;2022-12-07T04:05:17;12.58;;;9.28;;
73678;SDS011;61978;52.742;16.962;2022-12-07T04:07:46;10.53;;;8.70;;
73678;SDS011;61978;52.742;16.962;2022-12-07T04:10:13;13.00;;;9.90;;
73678;SDS011;61978;52.742;16.962;2022-12-07T04:12:45;11.90;;;10.18;;
73678;SDS011;61978;52.742;16.962;2022-12-07T04:15:12;11.22;;;9.25;;
73678;SDS011;61978;52.742;16.962;2022-12-07T04:17:42;10.30;;;5.37;;
73678;SDS011;61978;52.742;16.962;2022-12-07T04:20:11;12.50;;;8.68;;
73678;SDS011;61978;52.742;16.962;2022-12-07T04:22:42;11.45;;;9.75;;
73678;SDS011;61978;52.742;16.962;2022-12-07T04:25:09;10.38;;;8.90;;
73678;SDS011;61978;52.742;16.962;2022-12-07T04:27:36;10.88;;;8.98;;
73678;SDS011;61978;52.742;16.962;2022-12-07T04:30:06;12.55;;;9.50;;
73678;SDS011;61978;52.742;16.962;2022-12-07T04:32:36;14.28;;;9.20;;
73678;SDS011;61978;52.742;16.962;2022-12-07T04:35:07;12.80;;;10.10;;
73678;SDS011;61978;52.742;16.962;2022-12-07T04:37:36;8.70;;;6.30;;
73678;SDS011;61978;52.742;16.962;2022-12-07T04:40:06;8.60;;;5.42;;
73678;SDS011;61978;52.742;16.962;2022-12-07T04:42:37;9.40;;;5.50;;
73678;SDS011;61978;52.742;16.962;2022-12-07T04:45:05;11.03;;;9.35;;
73678;SDS011;61978;52.742;16.962;2022-12-07T04:47:37;11.73;;;9.05;;
73678;SDS011;61978;52.742;16.962;2022-12-07T04:50:06;16.95;;;8.83;;
73678;SDS011;61978;52.742;16.962;2022-12-07T04:52:39;11.40;;;9.60;;
73678;SDS011;61978;52.742;16.962;2022-12-07T04:55:12;12.53;;;9.75;;
73678;SDS011;61978;52.742;16.962;2022-12-07T04:57:39;12.80;;;9.43;;
73678;SDS011;61978;52.742;16.962;2022-12-07T05:00:08;11.35;;;8.30;;
73678;SDS011;61978;52.742;16.962;2022-12-07T05:02:37;11.18;;;9.08;;
73678;SDS011;61978;52.742;16.962;2022-12-07T05:05:04;10.10;;;8.98;;
73678;SDS011;61978;52.742;16.962;2022-12-07T05:07:32;12.47;;;8.58;;
73678;SDS011;61978;52.742;16.962;2022-12-07T05:09:59;10.93;;;9.63;;
73678;SDS011;61978;52.742;16.962;2022-12-07T05:12:28;14.15;;;9.43;;
73678;SDS011;61978;52.742;16.962;2022-12-07T05:14:56;11.30;;;8.90;;
73678;SDS011;61978;52.742;16.962;2022-12-07T05:17:29;12.20;;;9.43;;
73678;SDS011;61978;52.742;16.962;2022-12-07T05:19:55;12.82;;;9.13;;
73678;SDS011;61978;52.742;16.962;2022-12-07T05:22:22;9.90;;;8.90;;
73678;SDS011;61978;52.742;16.962;2022-12-07T05:24:50;16.50;;;9.70;;
73678;SDS011;61978;52.742;16.962;2022-12-07T05:27:17;10.20;;;8.95;;
73678;SDS011;61978;52.742;16.962;2022-12-07T05:29:43;12.25;;;9.20;;
73678;SDS011;61978;52.742;16.962;2022-12-07T05:32:09;11.22;;;8.95;;
73678;SDS011;61978;52.742;16.962;2022-12-07T05:34:35;10.90;;;9.63;;
73678;SDS011;61978;52.742;16.962;2022-12-07T05:37:03;13.70;;;9.08;;
73678;SDS011;61978;52.742;16.962;2022-12-07T05:39:30;13.75;;;10.53;;
73678;SDS011;61978;52.742;16.962;2022-12-07T05:41:57;11.78;;;10.13;;
73678;SDS011;61978;52.742;16.962;2022-12-07T05:44:40;10.35;;;9.35;;
73678;SDS011;61978;52.742;16.962;2022-12-07T05:47:10;11.73;;;9.73;;
73678;SDS011;61978;52.742;16.962;2022-12-07T05:49:38;13.32;;;10.35;;
73678;SDS011;61978;52.742;16.962;2022-12-07T05:52:04;12.30;;;10.60;;
73678;SDS011;61978;52.742;16.962;2022-12-07T05:54:32;12.37;;;11.08;;
73678;SDS011;61978;52.742;16.962;2022-12-07T05:56:58;12.58;;;10.85;;
73678;SDS011;61978;52.742;16.962;2022-12-07T05:59:25;11.60;;;10.13;;
73678;SDS011;61978;52.742;16.962;2022-12-07T06:01:58;17.07;;;15.28;;
73678;SDS011;61978;52.742;16.962;2022-12-07T06:04:28;102.27;;;79.17;;
73678;SDS011;61978;52.742;16.962;2022-12-07T06:06:56;19.52;;;17.62;;
73678;SDS011;61978;52.742;16.962;2022-12-07T06:09:23;14.83;;;13.25;;
73678;SDS011;61978;52.742;16.962;2022-12-07T06:11:52;17.20;;;13.43;;
73678;SDS011;61978;52.742;16.962;2022-12-07T06:14:38;13.95;;;11.50;;
73678;SDS011;61978;52.742;16.962;2022-12-07T06:17:06;12.40;;;11.10;;
73678;SDS011;61978;52.742;16.962;2022-12-07T06:19:32;12.13;;;10.10;;
73678;SDS011;61978;52.742;16.962;2022-12-07T06:22:01;11.73;;;10.50;;
73678;SDS011;61978;52.742;16.962;2022-12-07T06:24:28;13.48;;;11.30;;
73678;SDS011;61978;52.742;16.962;2022-12-07T06:26:54;12.43;;;11.15;;
73678;SDS011;61978;52.742;16.962;2022-12-07T06:29:20;14.33;;;11.75;;
73678;SDS011;61978;52.742;16.962;2022-12-07T06:31:47;12.73;;;11.35;;
73678;SDS011;61978;52.742;16.962;2022-12-07T06:34:18;29.23;;;12.88;;
73678;SDS011;61978;52.742;16.962;2022-12-07T06:36:48;16.30;;;11.03;;
73678;SDS011;61978;52.742;16.962;2022-12-07T06:39:17;13.00;;;11.60;;
73678;SDS011;61978;52.742;16.962;2022-12-07T06:41:45;14.03;;;10.53;;
73678;SDS011;61978;52.742;16.962;2022-12-07T06:44:11;12.47;;;10.70;;
73678;SDS011;61978;52.742;16.962;2022-12-07T06:46:39;12.50;;;11.20;;
73678;SDS011;61978;52.742;16.962;2022-12-07T06:49:05;13.50;;;11.28;;
73678;SDS011;61978;52.742;16.962;2022-12-07T06:51:32;14.13;;;10.85;;
73678;SDS011;61978;52.742;16.962;2022-12-07T06:54:02;12.50;;;11.20;;
73678;SDS011;61978;52.742;16.962;2022-12-07T06:56:29;16.75;;;11.08;;
73678;SDS011;61978;52.742;16.962;2022-12-07T06:58:56;14.95;;;11.57;;
73678;SDS011;61978;52.742;16.962;2022-12-07T07:01:22;13.25;;;11.63;;
73678;SDS011;61978;52.742;16.962;2022-12-07T07:03:48;15.88;;;11.85;;
73678;SDS011;61978;52.742;16.962;2022-12-07T07:06:15;13.10;;;11.35;;
73678;SDS011;61978;52.742;16.962;2022-12-07T07:08:41;18.35;;;12.53;;
73678;SDS011;61978;52.742;16.962;2022-12-07T07:11:08;15.43;;;12.93;;
73678;SDS011;61978;52.742;16.962;2022-12-07T07:13:35;15.18;;;13.58;;
73678;SDS011;61978;52.742;16.962;2022-12-07T07:16:07;14.73;;;13.18;;
73678;SDS011;61978;52.742;16.962;2022-12-07T07:18:33;17.82;;;13.70;;
73678;SDS011;61978;52.742;16.962;2022-12-07T07:21:02;15.63;;;12.80;;
73678;SDS011;61978;52.742;16.962;2022-12-07T07:23:30;15.20;;;13.58;;
73678;SDS011;61978;52.742;16.962;2022-12-07T07:25:58;17.48;;;13.95;;
73678;SDS011;61978;52.742;16.962;2022-12-07T07:28:24;17.32;;;12.98;;
73678;SDS011;61978;52.742;16.962;2022-12-07T07:30:51;16.93;;;12.80;;
73678;SDS011;61978;52.742;16.962;2022-12-07T07:33:17;16.87;;;12.30;;
73678;SDS011;61978;52.742;16.962;2022-12-07T07:35:43;16.32;;;12.20;;
73678;SDS011;61978;52.742;16.962;2022-12-07T07:38:11;13.93;;;12.13;;
73678;SDS011;61978;52.742;16.962;2022-12-07T07:40:39;15.75;;;12.55;;
73678;SDS011;61978;52.742;16.962;2022-12-07T07:43:06;13.72;;;11.45;;
73678;SDS011;61978;52.742;16.962;2022-12-07T07:45:33;13.48;;;11.73;;
73678;SDS011;61978;52.742;16.962;2022-12-07T07:48:01;14.93;;;12.07;;
73678;SDS011;61978;52.742;16.962;2022-12-07T07:50:27;14.33;;;11.93;;
73678;SDS011;61978;52.742;16.962;2022-12-07T07:52:53;16.67;;;12.78;;
73678;SDS011;61978;52.742;16.962;2022-12-07T07:55:20;14.55;;;12.47;;
73678;SDS011;61978;52.742;16.962;2022-12-07T07:57:46;14.85;;;12.70;;
73678;SDS011;61978;52.742;16.962;2022-12-07T08:00:16;14.87;;;12.20;;
73678;SDS011;61978;52.742;16.962;2022-12-07T08:02:43;14.65;;;11.68;;
73678;SDS011;61978;52.742;16.962;2022-12-07T08:05:12;15.25;;;12.47;;
73678;SDS011;61978;52.742;16.962;2022-12-07T08:07:39;14.40;;;12.15;;
73678;SDS011;61978;52.742;16.962;2022-12-07T08:10:07;12.90;;;11.50;;
73678;SDS011;61978;52.742;16.962;2022-12-07T08:12:37;13.90;;;12.18;;
73678;SDS011;61978;52.742;16.962;2022-12-07T08:15:07;16.25;;;12.63;;
73678;SDS011;61978;52.742;16.962;2022-12-07T08:17:37;13.60;;;12.20;;
73678;SDS011;61978;52.742;16.962;2022-12-07T08:20:06;14.35;;;11.65;;
73678;SDS011;61978;52.742;16.962;2022-12-07T08:22:33;12.98;;;11.45;;
73678;SDS011;61978;52.742;16.962;2022-12-07T08:25:02;13.22;;;10.65;;
73678;SDS011;61978;52.742;16.962;2022-12-07T08:27:31;12.25;;;10.90;;
73678;SDS011;61978;52.742;16.962;2022-12-07T08:29:58;15.00;;;11.22;;
73678;SDS011;61978;52.742;16.962;2022-12-07T08:32:24;12.93;;;10.23;;
73678;SDS011;61978;52.742;16.962;2022-12-07T08:34:51;12.03;;;10.72;;
73678;SDS011;61978;52.742;16.962;2022-12-07T08:37:19;12.33;;;10.68;;
73678;SDS011;61978;52.742;16.962;2022-12-07T08:39:45;11.93;;;10.58;;
73678;SDS011;61978;52.742;16.962;2022-12-07T08:42:12;13.62;;;10.95;;
73678;SDS011;61978;52.742;16.962;2022-12-07T08:44:41;13.93;;;12.33;;
73678;SDS011;61978;52.742;16.962;2022-12-07T08:47:08;22.93;;;19.50;;
73678;SDS011;61978;52.742;16.962;2022-12-07T08:49:39;36.75;;;26.73;;
73678;SDS011;61978;52.742;16.962;2022-12-07T08:52:08;28.77;;;24.07;;
73678;SDS011;61978;52.742;16.962;2022-12-07T08:54:35;51.15;;;42.35;;
73678;SDS011;61978;52.742;16.962;2022-12-07T08:57:05;21.52;;;18.07;;
73678;SDS011;61978;52.742;16.962;2022-12-07T08:59:34;16.17;;;12.63;;
73678;SDS011;61978;52.742;16.962;2022-12-07T09:02:05;15.40;;;12.95;;
73678;SDS011;61978;52.742;16.962;2022-12-07T09:04:33;19.32;;;14.50;;
73678;SDS011;61978;52.742;16.962;2022-12-07T09:07:01;15.93;;;13.70;;
73678;SDS011;61978;52.742;16.962;2022-12-07T09:09:29;15.95;;;13.45;;
73678;SDS011;61978;52.742;16.962;2022-12-07T09:11:56;28.73;;;19.77;;
73678;SDS011;61978;52.742;16.962;2022-12-07T09:14:23;58.52;;;30.95;;
73678;SDS011;61978;52.742;16.962;2022-12-07T09:16:50;31.20;;;20.15;;
73678;SDS011;61978;52.742;16.962;2022-12-07T09:19:18;28.60;;;19.25;;
73678;SDS011;61978;52.742;16.962;2022-12-07T09:21:47;19.23;;;14.45;;
73678;SDS011;61978;52.742;16.962;2022-12-07T09:24:13;27.85;;;19.40;;
73678;SDS011;61978;52.742;16.962;2022-12-07T09:26:40;25.97;;;17.25;;
73678;SDS011;61978;52.742;16.962;2022-12-07T09:29:07;17.17;;;14.33;;
73678;SDS011;61978;52.742;16.962;2022-12-07T09:31:35;25.32;;;17.55;;
73678;SDS011;61978;52.742;16.962;2022-12-07T09:34:04;51.20;;;28.77;;
73678;SDS011;61978;52.742;16.962;2022-12-07T09:36:32;15.35;;;13.40;;
73678;SDS011;61978;52.742;16.962;2022-12-07T09:38:59;28.30;;;19.20;;
73678;SDS011;61978;52.742;16.962;2022-12-07T09:41:27;44.85;;;24.72;;
73678;SDS011;61978;52.742;16.962;2022-12-07T09:44:13;36.13;;;23.35;;
73678;SDS011;61978;52.742;16.962;2022-12-07T09:46:43;21.27;;;14.98;;
73678;SDS011;61978;52.742;16.962;2022-12-07T09:49:13;27.85;;;18.98;;
73678;SDS011;61978;52.742;16.962;2022-12-07T09:51:42;19.65;;;15.13;;
73678;SDS011;61978;52.742;16.962;2022-12-07T09:54:11;26.75;;;18.70;;
73678;SDS011;61978;52.742;16.962;2022-12-07T09:56:40;28.27;;;18.27;;
73678;SDS011;61978;52.742;16.962;2022-12-07T09:59:13;21.02;;;15.63;;
73678;SDS011;61978;52.742;16.962;2022-12-07T10:01:48;19.82;;;14.85;;
73678;SDS011;61978;52.742;16.962;2022-12-07T10:04:23;26.48;;;19.98;;
73678;SDS011;61978;52.742;16.962;2022-12-07T10:06:54;25.90;;;18.85;;
73678;SDS011;61978;52.742;16.962;2022-12-07T10:09:21;24.67;;;19.05;;
73678;SDS011;61978;52.742;16.962;2022-12-07T10:12:02;27.22;;;22.37;;
73678;SDS011;61978;52.742;16.962;2022-12-07T10:14:38;38.92;;;29.85;;
73678;SDS011;61978;52.742;16.962;2022-12-07T10:22:56;31.40;;;25.15;;
73678;SDS011;61978;52.742;16.962;2022-12-07T10:25:34;30.23;;;22.65;;
73678;SDS011;61978;52.742;16.962;2022-12-07T10:28:16;46.50;;;32.25;;
73678;SDS011;61978;52.742;16.962;2022-12-07T10:33:32;61.33;;;43.83;;
73678;SDS011;61978;52.742;16.962;2022-12-07T10:36:14;55.50;;;37.55;;
73678;SDS011;61978;52.742;16.962;2022-12-07T10:38:45;36.85;;;25.70;;
73678;SDS011;61978;52.742;16.962;2022-12-07T10:41:15;35.48;;;26.42;;
73678;SDS011;61978;52.742;16.962;2022-12-07T10:43:50;36.75;;;25.82;;
73678;SDS011;61978;52.742;16.962;2022-12-07T10:51:50;30.20;;;22.95;;
73678;SDS011;61978;52.742;16.962;2022-12-07T10:54:20;29.57;;;22.98;;
73678;SDS011;61978;52.742;16.962;2022-12-07T10:57:10;32.05;;;21.97;;
73678;SDS011;61978;52.742;16.962;2022-12-07T10:59:50;37.63;;;24.70;;
73678;SDS011;61978;52.742;16.962;2022-12-07T11:02:43;38.10;;;28.80;;
73678;SDS011;61978;52.742;16.962;2022-12-07T11:05:27;35.83;;;26.65;;
73678;SDS011;61978;52.742;16.962;2022-12-07T11:10:59;23.27;;;18.65;;
73678;SDS011;61978;52.742;16.962;2022-12-07T11:22:06;22.73;;;18.02;;
73678;SDS011;61978;52.742;16.962;2022-12-07T11:35:30;18.90;;;15.88;;
73678;SDS011;61978;52.742;16.962;2022-12-07T11:38:00;19.10;;;15.25;;
73678;SDS011;61978;52.742;16.962;2022-12-07T11:43:25;21.40;;;16.65;;
73678;SDS011;61978;52.742;16.962;2022-12-07T11:45:58;23.92;;;17.67;;
73678;SDS011;61978;52.742;16.962;2022-12-07T11:50:59;22.30;;;17.15;;
73678;SDS011;61978;52.742;16.962;2022-12-07T11:53:36;21.50;;;16.95;;
73678;SDS011;61978;52.742;16.962;2022-12-07T11:56:07;18.92;;;13.20;;
73678;SDS011;61978;52.742;16.962;2022-12-07T11:58:45;18.95;;;14.58;;
73678;SDS011;61978;52.742;16.962;2022-12-07T12:04:12;25.83;;;19.63;;
73678;SDS011;61978;52.742;16.962;2022-12-07T12:06:42;24.18;;;16.87;;
73678;SDS011;61978;52.742;16.962;2022-12-07T12:15:16;20.60;;;14.45;;
73678;SDS011;61978;52.742;16.962;2022-12-07T12:17:54;23.92;;;15.18;;
73678;SDS011;61978;52.742;16.962;2022-12-07T12:28:35;18.62;;;14.35;;
73678;SDS011;61978;52.742;16.962;2022-12-07T12:31:04;15.00;;;12.98;;
73678;SDS011;61978;52.742;16.962;2022-12-07T12:33:36;18.27;;;13.43;;
73678;SDS011;61978;52.742;16.962;2022-12-07T12:36:17;18.87;;;14.47;;
73678;SDS011;61978;52.742;16.962;2022-12-07T12:38:50;19.12;;;13.68;;
73678;SDS011;61978;52.742;16.962;2022-12-07T12:51:58;17.90;;;14.03;;
73678;SDS011;61978;52.742;16.962;2022-12-07T12:57:30;19.52;;;15.08;;
73678;SDS011;61978;52.742;16.962;2022-12-07T12:59:58;13.40;;;12.00;;
73678;SDS011;61978;52.742;16.962;2022-12-07T13:02:29;13.50;;;10.70;;
73678;SDS011;61978;52.742;16.962;2022-12-07T13:10:37;11.93;;;10.70;;
73678;SDS011;61978;52.742;16.962;2022-12-07T13:15:49;11.12;;;9.18;;
73678;SDS011;61978;52.742;16.962;2022-12-07T13:23:39;10.75;;;9.65;;
73678;SDS011;61978;52.742;16.962;2022-12-07T13:29:14;9.50;;;8.03;;
73678;SDS011;61978;52.742;16.962;2022-12-07T13:31:34;10.05;;;8.08;;
73678;SDS011;61978;52.742;16.962;2022-12-07T13:37:01;8.55;;;7.53;;
73678;SDS011;61978;52.742;16.962;2022-12-07T13:39:34;12.10;;;9.80;;
73678;SDS011;61978;52.742;16.962;2022-12-07T13:42:19;7.97;;;7.25;;
73678;SDS011;61978;52.742;16.962;2022-12-07T13:44:33;13.05;;;11.85;;
73678;SDS011;61978;52.742;16.962;2022-12-07T13:49:49;8.33;;;7.53;;
73678;SDS011;61978;52.742;16.962;2022-12-07T13:52:27;8.43;;;7.62;;
73678;SDS011;61978;52.742;16.962;2022-12-07T13:57:29;11.83;;;10.00;;
73678;SDS011;61978;52.742;16.962;2022-12-07T13:59:59;14.25;;;11.63;;
73678;SDS011;61978;52.742;16.962;2022-12-07T14:02:31;10.88;;;9.85;;
73678;SDS011;61978;52.742;16.962;2022-12-07T14:05:07;13.38;;;12.03;;
73678;SDS011;61978;52.742;16.962;2022-12-07T14:13:03;12.65;;;11.38;;
73678;SDS011;61978;52.742;16.962;2022-12-07T14:15:52;12.40;;;11.20;;
73678;SDS011;61978;52.742;16.962;2022-12-07T14:18:41;14.13;;;12.63;;
73678;SDS011;61978;52.742;16.962;2022-12-07T14:21:17;12.40;;;11.03;;
73678;SDS011;61978;52.742;16.962;2022-12-07T14:23:45;13.90;;;12.00;;
73678;SDS011;61978;52.742;16.962;2022-12-07T14:26:19;12.68;;;10.25;;
73678;SDS011;61978;52.742;16.962;2022-12-07T14:28:48;13.85;;;12.05;;
73678;SDS011;61978;52.742;16.962;2022-12-07T14:31:17;15.30;;;13.68;;
73678;SDS011;61978;52.742;16.962;2022-12-07T14:33:48;12.82;;;11.43;;
73678;SDS011;61978;52.742;16.962;2022-12-07T14:36:16;15.23;;;13.60;;
73678;SDS011;61978;52.742;16.962;2022-12-07T14:38:45;13.03;;;11.63;;
73678;SDS011;61978;52.742;16.962;2022-12-07T14:41:13;12.45;;;11.15;;
73678;SDS011;61978;52.742;16.962;2022-12-07T14:44:01;11.85;;;10.28;;
73678;SDS011;61978;52.742;16.962;2022-12-07T14:46:32;13.40;;;10.03;;
73678;SDS011;61978;52.742;16.962;2022-12-07T14:49:00;11.33;;;9.95;;
73678;SDS011;61978;52.742;16.962;2022-12-07T14:51:27;11.08;;;9.95;;
73678;SDS011;61978;52.742;16.962;2022-12-07T14:53:59;11.25;;;9.68;;
73678;SDS011;61978;52.742;16.962;2022-12-07T14:56:28;11.95;;;9.43;;
73678;SDS011;61978;52.742;16.962;2022-12-07T14:58:55;12.30;;;10.95;;
73678;SDS011;61978;52.742;16.962;2022-12-07T15:01:24;12.47;;;11.18;;
73678;SDS011;61978;52.742;16.962;2022-12-07T15:03:52;13.13;;;10.78;;
73678;SDS011;61978;52.742;16.962;2022-12-07T15:06:19;10.68;;;9.55;;
73678;SDS011;61978;52.742;16.962;2022-12-07T15:08:46;12.43;;;11.20;;
73678;SDS011;61978;52.742;16.962;2022-12-07T15:11:13;10.65;;;9.50;;
73678;SDS011;61978;52.742;16.962;2022-12-07T15:13:41;12.45;;;10.93;;
73678;SDS011;61978;52.742;16.962;2022-12-07T15:16:27;11.93;;;10.72;;
73678;SDS011;61978;52.742;16.962;2022-12-07T15:18:57;10.72;;;9.00;;
73678;SDS011;61978;52.742;16.962;2022-12-07T15:21:25;13.90;;;10.78;;
73678;SDS011;61978;52.742;16.962;2022-12-07T15:23:52;8.10;;;7.30;;
73678;SDS011;61978;52.742;16.962;2022-12-07T15:26:23;9.35;;;7.35;;
73678;SDS011;61978;52.742;16.962;2022-12-07T15:28:53;9.20;;;7.95;;
73678;SDS011;61978;52.742;16.962;2022-12-07T15:31:23;8.53;;;7.60;;
73678;SDS011;61978;52.742;16.962;2022-12-07T15:33:53;9.53;;;8.55;;
73678;SDS011;61978;52.742;16.962;2022-12-07T15:36:21;10.50;;;8.80;;
73678;SDS011;61978;52.742;16.962;2022-12-07T15:38:54;9.85;;;7.85;;
73678;SDS011;61978;52.742;16.962;2022-12-07T15:41:23;11.33;;;10.10;;
73678;SDS011;61978;52.742;16.962;2022-12-07T15:43:49;6.15;;;5.47;;
73678;SDS011;61978;52.742;16.962;2022-12-07T15:46:36;5.87;;;3.50;;
73678;SDS011;61978;52.742;16.962;2022-12-07T15:49:13;7.87;;;4.45;;
73678;SDS011;61978;52.742;16.962;2022-12-07T15:51:40;8.20;;;3.55;;
73678;SDS011;61978;52.742;16.962;2022-12-07T15:54:16;6.90;;;4.35;;
73678;SDS011;61978;52.742;16.962;2022-12-07T15:56:44;6.37;;;2.60;;
73678;SDS011;61978;52.742;16.962;2022-12-07T15:59:18;6.55;;;2.80;;
73678;SDS011;61978;52.742;16.962;2022-12-07T16:01:58;28.90;;;25.88;;
73678;SDS011;61978;52.742;16.962;2022-12-07T16:04:26;15.78;;;14.38;;
73678;SDS011;61978;52.742;16.962;2022-12-07T16:06:55;9.45;;;5.90;;
73678;SDS011;61978;52.742;16.962;2022-12-07T16:09:23;5.67;;;5.05;;
73678;SDS011;61978;52.742;16.962;2022-12-07T16:11:54;8.00;;;5.80;;
73678;SDS011;61978;52.742;16.962;2022-12-07T16:14:23;8.70;;;5.70;;
73678;SDS011;61978;52.742;16.962;2022-12-07T16:16:49;6.37;;;5.30;;
73678;SDS011;61978;52.742;16.962;2022-12-07T16:19:16;8.50;;;6.42;;
73678;SDS011;61978;52.742;16.962;2022-12-07T16:21:43;6.47;;;5.53;;
73678;SDS011;61978;52.742;16.962;2022-12-07T16:24:09;7.15;;;5.80;;
73678;SDS011;61978;52.742;16.962;2022-12-07T16:26:36;7.85;;;6.50;;
73678;SDS011;61978;52.742;16.962;2022-12-07T16:29:03;9.48;;;7.15;;
73678;SDS011;61978;52.742;16.962;2022-12-07T16:31:30;10.15;;;6.72;;
73678;SDS011;61978;52.742;16.962;2022-12-07T16:33:57;11.43;;;8.55;;
73678;SDS011;61978;52.742;16.962;2022-12-07T16:36:25;10.15;;;6.83;;
73678;SDS011;61978;52.742;16.962;2022-12-07T16:38:53;10.32;;;7.17;;
73678;SDS011;61978;52.742;16.962;2022-12-07T16:41:20;10.23;;;7.40;;
73678;SDS011;61978;52.742;16.962;2022-12-07T16:43:47;10.23;;;7.67;;
73678;SDS011;61978;52.742;16.962;2022-12-07T16:46:14;9.70;;;7.37;;
73678;SDS011;61978;52.742;16.962;2022-12-07T16:48:41;8.48;;;7.25;;
73678;SDS011;61978;52.742;16.962;2022-12-07T16:51:11;9.80;;;7.45;;
73678;SDS011;61978;52.742;16.962;2022-12-07T16:53:40;11.18;;;8.70;;
73678;SDS011;61978;52.742;16.962;2022-12-07T16:56:17;8.85;;;6.85;;